Terminal Aerodrome Forecast
Issued by NWS

Home | Current Version | Previous Version | Text Only | Print | Product List | Glossary On
Versions: 1 2 3 4 5 6 7 8 9 10 11 12 13 14 15 16 17 18 19 20
000
FTUS43 KLSX 051312 AAA
TAFUIN
TAF AMD
KUIN 051312Z 0513/0612 16004KT 5SM BR SCT250
     FM051400 16006KT P6SM FEW030
     FM060300 15008KT P6SM SCT040=

USA.gov is the U.S. government's official web portal to all federal, state and local government web resources and services.